createdAt,value
2019-02-28T00:00:55.132Z,94299.19
2019-02-28T00:03:26.263Z,94290.17
2019-02-28T00:05:53.959Z,94289.30
2019-02-28T00:08:22.406Z,94288.08
2019-02-28T00:10:50.828Z,94284.44
2019-02-28T00:13:22.539Z,94289.22
2019-02-28T00:15:52.683Z,94283.09
2019-02-28T00:18:21.126Z,94281.48
2019-02-28T00:20:49.574Z,94278.25
2019-02-28T00:23:19.172Z,94274.52
2019-02-28T00:25:48.267Z,94272.73
2019-02-28T00:28:16.709Z,94280.89
2019-02-28T00:30:45.285Z,94277.64
2019-02-28T00:33:13.752Z,94271.42
2019-02-28T00:35:44.707Z,94270.27
2019-02-28T00:38:12.393Z,94274.19
2019-02-28T00:40:40.988Z,94272.22
2019-02-28T00:43:09.494Z,94263.94
2019-02-28T00:45:38.014Z,94255.27
2019-02-28T00:48:06.561Z,94265.21
2019-02-28T00:50:38.096Z,94261.30
2019-02-28T00:53:07.390Z,94260.00
2019-02-28T00:55:35.900Z,94257.70
2019-02-28T00:58:04.389Z,94249.91
2019-02-28T01:00:32.929Z,94245.36
2019-02-28T01:03:01.433Z,94248.30
2019-02-28T01:05:29.854Z,94240.32
2019-02-28T01:07:58.633Z,94236.72
2019-02-28T01:10:27.116Z,94241.44
2019-02-28T01:12:55.541Z,94234.60
2019-02-28T01:15:24.006Z,94232.98
2019-02-28T01:17:52.419Z,94230.04
2019-02-28T01:20:20.920Z,94224.02
2019-02-28T01:22:49.369Z,94225.80
2019-02-28T01:25:18.631Z,94222.87
2019-02-28T01:27:47.077Z,94221.22
2019-02-28T01:30:16.322Z,94210.78
2019-02-28T01:32:49.772Z,94207.20
2019-02-28T01:35:15.158Z,94209.17
2019-02-28T01:37:43.584Z,94207.52
2019-02-28T01:40:14.198Z,94200.48
2019-02-28T01:42:42.723Z,94204.40
2019-02-28T01:45:13.461Z,94198.65
2019-02-28T01:47:42.029Z,94195.77
2019-02-28T01:50:11.911Z,94195.45
2019-02-28T01:52:44.359Z,94187.58
2019-02-28T01:55:11.441Z,94183.38
2019-02-28T01:57:43.990Z,94177.85
2019-02-28T02:00:17.762Z,94176.88
2019-02-28T02:02:46.332Z,94168.85
2019-02-28T02:05:16.878Z,94166.78
2019-02-28T02:07:45.421Z,94164.48
2019-02-28T02:10:21.584Z,94164.48
2019-02-28T02:12:51.087Z,94158.62
2019-02-28T02:15:19.723Z,94156.98
2019-02-28T02:17:49.799Z,94165.13
2019-02-28T02:20:18.553Z,94150.80
2019-02-28T02:22:47.053Z,94151.78
2019-02-28T02:25:15.623Z,94157.48
2019-02-28T02:27:44.190Z,94153.06
2019-02-28T02:30:21.119Z,94143.28
2019-02-28T02:32:49.656Z,94145.50
2019-02-28T02:35:18.205Z,94143.86
2019-02-28T02:37:46.758Z,94138.98
2019-02-28T02:40:16.662Z,94139.95
2019-02-28T02:42:48.585Z,94142.11
2019-02-28T02:45:15.737Z,94132.53
2019-02-28T02:47:44.329Z,94130.89
2019-02-28T02:50:16.117Z,94128.28
2019-02-28T02:52:44.627Z,94133.52
2019-02-28T02:55:13.924Z,94126.67
2019-02-28T02:57:42.540Z,94121.11
2019-02-28T03:00:19.169Z,94123.41
2019-02-28T03:02:48.032Z,94121.45
2019-02-28T03:05:16.705Z,94116.84
2019-02-28T03:07:45.397Z,94120.09
2019-02-28T03:10:17.958Z,94122.98
2019-02-28T03:12:47.111Z,94120.34
2019-02-28T03:15:25.263Z,94116.48
2019-02-28T03:17:49.454Z,94109.78
2019-02-28T03:20:18.151Z,94110.75
2019-02-28T03:22:46.628Z,94115.44
2019-02-28T03:25:16.244Z,94112.72
2019-02-28T03:27:44.695Z,94113.20
2019-02-28T03:30:26.033Z,94115.39
2019-02-28T03:32:46.091Z,94112.73
2019-02-28T03:35:14.696Z,94117.28
2019-02-28T03:37:43.115Z,94115.92
2019-02-28T03:40:13.012Z,94124.67
2019-02-28T03:42:41.432Z,94121.37
2019-02-28T03:45:11.814Z,94127.53
2019-02-28T03:47:40.913Z,94124.23
2019-02-28T03:50:10.375Z,94116.77
2019-02-28T03:52:43.879Z,94117.19
2019-02-28T03:55:12.386Z,94115.63
2019-02-28T03:57:40.891Z,94115.75
2019-02-28T04:00:20.889Z,94117.95
2019-02-28T04:02:56.617Z,94114.03
2019-02-28T04:05:26.694Z,94112.95
2019-02-28T04:07:53.539Z,94113.34
2019-02-28T04:10:22.014Z,94109.83
2019-02-28T04:12:50.377Z,94118.45
2019-02-28T04:15:20.070Z,94107.80
2019-02-28T04:17:48.493Z,94114.30
2019-02-28T04:20:17.117Z,94110.75
2019-02-28T04:22:45.613Z,94117.66
2019-02-28T04:25:14.204Z,94114.59
2019-02-28T04:27:42.732Z,94110.29
2019-02-28T04:30:12.988Z,94111.53
2019-02-28T04:32:41.511Z,94109.40
2019-02-28T04:35:10.579Z,94105.09
2019-02-28T04:37:44.969Z,94105.00
2019-02-28T04:40:13.310Z,94112.09
2019-02-28T04:42:41.769Z,94106.09
2019-02-28T04:45:14.406Z,94106.72
2019-02-28T04:47:43.000Z,94103.77
2019-02-28T04:50:13.058Z,94097.90
2019-02-28T04:52:46.291Z,94100.56
2019-02-28T04:55:12.076Z,94098.89
2019-02-28T04:57:40.651Z,94104.09
2019-02-28T05:00:12.366Z,94100.86
2019-02-28T05:02:40.795Z,94102.45
2019-02-28T05:05:12.516Z,94106.63
2019-02-28T05:07:39.494Z,94098.26
2019-02-28T05:10:09.699Z,94098.55
2019-02-28T05:12:39.730Z,94098.82
2019-02-28T05:15:13.542Z,94104.66
2019-02-28T05:17:42.033Z,94095.19
2019-02-28T05:20:12.813Z,94100.30
2019-02-28T05:22:41.468Z,94094.14
2019-02-28T05:25:10.933Z,94085.69
2019-02-28T05:27:39.424Z,94086.33
2019-02-28T05:30:19.268Z,94086.03
2019-02-28T05:32:45.947Z,94083.34
2019-02-28T05:35:14.446Z,94090.44
2019-02-28T05:37:46.875Z,94085.52
2019-02-28T05:40:15.337Z,94083.52
2019-02-28T05:42:43.873Z,94096.09
2019-02-28T05:45:14.935Z,94096.02
2019-02-28T05:47:46.750Z,94099.52
2019-02-28T05:50:16.636Z,94098.14
2019-02-28T05:52:44.474Z,94096.36
2019-02-28T05:55:13.033Z,94095.95
2019-02-28T05:57:43.275Z,94097.25
2019-02-28T06:00:15.809Z,94095.20
2019-02-28T06:02:44.286Z,94101.78
2019-02-28T06:05:12.961Z,94103.00
2019-02-28T06:07:41.583Z,94105.23
2019-02-28T06:10:12.046Z,94101.03
2019-02-28T06:12:43.824Z,94102.81
2019-02-28T06:15:13.041Z,94109.40
2019-02-28T06:17:41.736Z,94106.73
2019-02-28T06:20:11.626Z,94109.69
2019-02-28T06:22:40.054Z,94105.45
2019-02-28T06:25:10.237Z,94114.45
2019-02-28T06:27:42.292Z,94110.17
2019-02-28T06:30:16.141Z,94117.87
2019-02-28T06:32:44.694Z,94113.05
2019-02-28T06:35:15.999Z,94116.33
2019-02-28T06:37:46.478Z,94126.02
2019-02-28T06:40:18.260Z,94121.24
2019-02-28T06:42:47.677Z,94118.05
2019-02-28T06:45:17.705Z,94122.14
2019-02-28T06:47:49.515Z,94125.37
2019-02-28T06:50:17.076Z,94127.68
2019-02-28T06:52:45.603Z,94132.59
2019-02-28T06:55:21.957Z,94133.45
2019-02-28T06:57:50.448Z,94123.71
2019-02-28T07:00:19.341Z,94131.56
2019-02-28T07:02:49.963Z,94130.61
2019-02-28T07:05:18.073Z,94129.28
2019-02-28T07:07:49.116Z,94131.56
2019-02-28T07:10:19.584Z,94137.12
2019-02-28T07:12:48.116Z,94130.59
2019-02-28T07:15:16.629Z,94134.69
2019-02-28T07:17:46.290Z,94137.01
2019-02-28T07:20:17.647Z,94134.31
2019-02-28T07:22:46.129Z,94136.24
2019-02-28T07:25:14.681Z,94132.86
2019-02-28T07:27:43.225Z,94133.97
2019-02-28T07:30:18.423Z,94130.44
2019-02-28T07:32:46.834Z,94127.87
2019-02-28T07:35:15.365Z,94129.08
2019-02-28T07:37:43.864Z,94130.63
2019-02-28T07:40:17.570Z,94130.06
2019-02-28T07:42:46.256Z,94126.90
2019-02-28T07:45:15.704Z,94124.27
2019-02-28T07:47:44.330Z,94123.39
2019-02-28T07:50:16.728Z,94122.30
2019-02-28T07:52:45.442Z,94119.71
2019-02-28T07:55:15.623Z,94123.09
2019-02-28T07:57:44.140Z,94120.17
2019-02-28T08:00:18.128Z,94128.88
2019-02-28T08:02:46.007Z,94127.44
2019-02-28T08:05:14.982Z,94130.17
2019-02-28T08:07:50.295Z,94128.05
2019-02-28T08:10:16.791Z,94136.90
2019-02-28T08:12:45.356Z,94129.56
2019-02-28T08:15:22.424Z,94136.72
2019-02-28T08:17:49.638Z,94128.95
2019-02-28T08:20:19.043Z,94123.80
2019-02-28T08:22:47.557Z,94119.02
2019-02-28T08:25:16.519Z,94122.59
2019-02-28T08:27:45.081Z,94123.12
2019-02-28T08:30:24.555Z,94127.05
2019-02-28T08:32:53.081Z,94126.52
2019-02-28T08:35:21.670Z,94122.59
2019-02-28T08:37:55.782Z,94124.71
2019-02-28T08:40:22.956Z,94130.98
2019-02-28T08:42:51.506Z,94130.21
2019-02-28T08:45:20.087Z,94126.80
2019-02-28T08:47:48.669Z,94125.66
2019-02-28T08:50:21.458Z,94119.48
2019-02-28T08:52:53.966Z,94124.69
2019-02-28T08:55:28.641Z,94121.45
2019-02-28T08:57:56.918Z,94131.81
2019-02-28T09:00:24.072Z,94126.50
2019-02-28T09:02:53.713Z,94125.73
2019-02-28T09:05:26.348Z,94126.20
2019-02-28T09:07:52.745Z,94138.16
2019-02-28T09:10:22.872Z,94119.29
2019-02-28T09:12:51.528Z,94115.20
2019-02-28T09:15:20.771Z,94124.96
2019-02-28T09:17:49.379Z,94129.30
2019-02-28T09:20:18.153Z,94126.89
2019-02-28T09:22:46.785Z,94137.06
2019-02-28T09:25:22.873Z,94134.91
2019-02-28T09:27:51.668Z,94137.04
2019-02-28T09:30:38.119Z,94142.93
2019-02-28T09:33:06.695Z,94137.92
2019-02-28T09:35:35.192Z,94139.28
2019-02-28T09:38:07.616Z,94135.98
2019-02-28T09:40:34.356Z,94135.83
2019-02-28T09:43:02.925Z,94129.77
2019-02-28T09:45:33.391Z,94129.36
2019-02-28T09:48:02.366Z,94135.66
2019-02-28T09:50:33.065Z,94131.80
2019-02-28T09:53:01.795Z,94132.52
2019-02-28T09:55:34.362Z,94128.86
2019-02-28T09:58:00.468Z,94128.66
2019-02-28T10:00:30.153Z,94129.64
2019-02-28T10:02:58.642Z,94139.20
2019-02-28T10:05:27.170Z,94129.81
2019-02-28T10:08:01.613Z,94119.01
2019-02-28T10:10:33.092Z,94121.33
2019-02-28T10:13:01.669Z,94115.66
2019-02-28T10:15:30.275Z,94116.31
2019-02-28T10:18:00.768Z,94115.47
2019-02-28T10:20:33.263Z,94114.27
2019-02-28T10:23:01.834Z,94112.17
2019-02-28T10:25:30.284Z,94116.01
2019-02-28T10:28:02.579Z,94115.63
2019-02-28T10:30:32.109Z,94108.79
2019-02-28T10:32:59.583Z,94108.41
2019-02-28T10:35:28.112Z,94106.52
2019-02-28T10:37:58.402Z,94105.54
2019-02-28T10:40:27.651Z,94092.55
2019-02-28T10:42:56.470Z,94101.52
2019-02-28T10:45:25.556Z,94107.95
2019-02-28T10:47:54.235Z,94110.28
2019-02-28T10:50:25.982Z,94103.22
2019-02-28T10:52:54.703Z,94111.80
2019-02-28T10:55:23.389Z,94108.63
2019-02-28T10:57:52.074Z,94107.19
2019-02-28T11:00:33.661Z,94110.66
2019-02-28T11:03:02.862Z,94100.53
2019-02-28T11:05:33.889Z,94105.77
2019-02-28T11:08:02.979Z,94105.66
2019-02-28T11:10:35.657Z,94101.52
2019-02-28T11:13:04.898Z,94092.05
2019-02-28T11:15:33.326Z,94090.19
2019-02-28T11:18:01.926Z,94089.88
2019-02-28T11:20:30.504Z,94086.07
2019-02-28T11:22:59.102Z,94087.73
2019-02-28T11:25:28.804Z,94094.08
2019-02-28T11:27:57.372Z,94076.69
2019-02-28T11:30:30.545Z,94084.38
2019-02-28T11:33:03.076Z,94075.08
2019-02-28T11:35:30.744Z,94071.20
2019-02-28T11:37:59.343Z,94071.98
2019-02-28T11:40:31.639Z,94080.55
2019-02-28T11:43:02.828Z,94073.03
2019-02-28T11:45:35.274Z,94071.98
2019-02-28T11:48:06.611Z,94076.20
2019-02-28T11:50:35.380Z,94081.03
2019-02-28T11:53:05.974Z,94072.02
2019-02-28T11:55:34.623Z,94073.32
2019-02-28T11:58:03.173Z,94064.73
2019-02-28T12:00:36.771Z,94065.02
2019-02-28T12:03:05.896Z,94065.66
2019-02-28T12:05:34.583Z,94054.64
2019-02-28T12:08:03.092Z,94055.81
2019-02-28T12:10:31.505Z,94053.56
2019-02-28T12:12:59.988Z,94049.59
2019-02-28T12:15:33.253Z,94051.89
2019-02-28T12:18:04.704Z,94050.62
2019-02-28T12:20:32.123Z,94043.67
2019-02-28T12:23:00.629Z,94036.84
2019-02-28T12:25:29.154Z,94043.84
2019-02-28T12:27:59.395Z,94036.06
2019-02-28T12:30:33.069Z,94041.92
2019-02-28T12:33:01.466Z,94039.11
2019-02-28T12:35:30.237Z,94032.61
2019-02-28T12:37:58.752Z,94035.47
2019-02-28T12:40:38.696Z,94030.84
2019-02-28T12:43:09.758Z,94029.89
2019-02-28T12:45:41.417Z,94032.44
2019-02-28T12:48:09.917Z,94039.11
2019-02-28T12:50:38.445Z,94031.78
2019-02-28T12:53:07.100Z,94036.72
2019-02-28T12:55:38.697Z,94035.13
2019-02-28T12:58:05.821Z,94033.69
2019-02-28T13:00:39.617Z,94024.75
2019-02-28T13:03:10.016Z,94012.16
2019-02-28T13:05:38.445Z,94017.16
2019-02-28T13:08:07.217Z,94012.90
2019-02-28T13:10:35.907Z,94014.15
2019-02-28T13:13:06.802Z,94014.12
2019-02-28T13:15:34.916Z,93997.80
2019-02-28T13:18:07.590Z,94007.81
2019-02-28T13:20:36.466Z,94008.83
2019-02-28T13:23:05.631Z,94010.86
2019-02-28T13:25:34.128Z,94010.59
2019-02-28T13:28:02.636Z,94000.16
2019-02-28T13:30:31.147Z,93992.75
2019-02-28T13:32:59.844Z,93996.47
2019-02-28T13:35:36.414Z,93992.38
2019-02-28T13:38:04.928Z,93994.67
2019-02-28T13:40:33.392Z,93978.96
2019-02-28T13:43:02.174Z,93991.78
2019-02-28T13:45:31.034Z,93988.84
2019-02-28T13:47:59.525Z,93988.73
2019-02-28T13:50:32.588Z,93991.22
2019-02-28T13:53:17.043Z,93985.09
2019-02-28T13:55:32.037Z,93988.79
2019-02-28T13:58:00.565Z,93966.41
2019-02-28T14:00:30.701Z,93989.73
2019-02-28T14:03:13.003Z,93980.23
2019-02-28T14:05:41.884Z,93990.84
2019-02-28T14:08:12.151Z,93982.66
2019-02-28T14:10:41.324Z,93980.44
2019-02-28T14:13:09.925Z,93974.50
2019-02-28T14:15:43.561Z,93974.80
2019-02-28T14:18:13.439Z,93978.22
2019-02-28T14:20:41.919Z,93972.77
2019-02-28T14:23:10.416Z,93982.35
2019-02-28T14:25:39.817Z,93972.52
2019-02-28T14:28:09.284Z,93971.45
2019-02-28T14:30:37.811Z,93976.19
2019-02-28T14:33:06.519Z,93970.19
2019-02-28T14:35:37.599Z,93968.34
2019-02-28T14:38:05.816Z,93971.09
2019-02-28T14:40:34.390Z,93976.27
2019-02-28T14:43:02.876Z,93970.73
2019-02-28T14:45:43.011Z,93959.58
2019-02-28T14:48:10.599Z,93962.38
2019-02-28T14:50:39.457Z,93959.58
2019-02-28T14:53:13.093Z,93963.84
2019-02-28T14:55:38.358Z,93960.78
2019-02-28T14:58:07.789Z,93939.64
2019-02-28T15:00:38.932Z,93942.41
2019-02-28T15:03:07.071Z,93949.44
2019-02-28T15:05:38.215Z,93939.23
2019-02-28T15:08:07.271Z,93944.94
2019-02-28T15:10:35.874Z,93949.81
2019-02-28T15:13:05.131Z,93940.19
2019-02-28T15:15:36.154Z,93938.07
2019-02-28T15:18:04.759Z,93933.84
2019-02-28T15:20:33.402Z,93926.37
2019-02-28T15:23:03.844Z,93916.55
2019-02-28T15:25:32.418Z,93920.56
2019-02-28T15:28:00.919Z,93926.39
2019-02-28T15:30:39.511Z,93919.19
2019-02-28T15:33:08.099Z,93929.62
2019-02-28T15:35:36.666Z,93928.58
2019-02-28T15:38:08.778Z,93926.98
2019-02-28T15:40:41.715Z,93933.03
2019-02-28T15:43:10.268Z,93934.47
2019-02-28T15:45:38.932Z,93930.39
2019-02-28T15:48:07.480Z,93932.14
2019-02-28T15:50:35.955Z,93936.84
2019-02-28T15:53:04.751Z,93938.45
2019-02-28T15:55:35.219Z,93925.83
2019-02-28T15:58:05.763Z,93935.94
2019-02-28T16:00:35.584Z,93934.31
2019-02-28T16:03:04.395Z,93935.39
2019-02-28T16:05:32.891Z,93939.03
2019-02-28T16:08:01.490Z,93939.45
2019-02-28T16:10:33.096Z,93933.45
2019-02-28T16:13:01.673Z,93943.30
2019-02-28T16:15:30.305Z,93935.05
2019-02-28T16:17:58.922Z,93949.08
2019-02-28T16:20:30.446Z,93945.75
2019-02-28T16:22:57.738Z,93946.77
2019-02-28T16:25:33.580Z,93938.53
2019-02-28T16:28:04.557Z,93945.25
2019-02-28T16:30:32.928Z,93946.98
2019-02-28T16:33:01.473Z,93949.84
2019-02-28T16:35:30.053Z,93944.72
2019-02-28T16:37:58.585Z,93943.94
2019-02-28T16:40:31.568Z,93937.55
2019-02-28T16:43:00.025Z,93941.33
2019-02-28T16:45:31.166Z,93943.55
2019-02-28T16:48:02.990Z,93940.06
2019-02-28T16:50:31.602Z,93938.64
2019-02-28T16:53:00.143Z,93949.25
2019-02-28T16:55:31.064Z,93950.73
2019-02-28T16:57:58.939Z,93960.30
2019-02-28T17:00:27.816Z,93966.48
2019-02-28T17:02:58.014Z,93959.08
2019-02-28T17:05:28.231Z,93964.40
2019-02-28T17:07:56.967Z,93961.52
2019-02-28T17:10:33.183Z,93968.62
2019-02-28T17:13:09.491Z,93959.34
2019-02-28T17:15:39.689Z,93957.69
2019-02-28T17:18:26.187Z,93962.88
2019-02-28T17:20:54.667Z,93959.94
2019-02-28T17:23:23.182Z,93971.67
2019-02-28T17:25:53.438Z,93970.67
2019-02-28T17:28:35.687Z,93980.73
2019-02-28T17:31:22.349Z,93979.92
2019-02-28T17:33:51.433Z,93982.63
2019-02-28T17:36:20.636Z,93985.59
2019-02-28T17:38:49.232Z,93987.50
2019-02-28T17:41:17.740Z,93990.44
2019-02-28T17:44:05.704Z,93993.18
2019-02-28T17:46:34.181Z,93983.84
2019-02-28T17:49:32.755Z,93993.56
2019-02-28T17:52:06.944Z,93993.56
2019-02-28T17:54:54.213Z,94001.47
2019-02-28T17:57:29.734Z,94005.92
2019-02-28T18:00:34.930Z,93995.77
2019-02-28T18:03:15.384Z,93993.55
2019-02-28T18:06:18.569Z,94001.23
2019-02-28T18:09:05.193Z,93993.16
2019-02-28T18:11:39.149Z,93995.58
2019-02-28T18:14:22.761Z,93995.17
2019-02-28T18:17:13.773Z,93988.29
2019-02-28T18:19:51.095Z,93992.55
2019-02-28T18:22:38.298Z,93996.26
2019-02-28T18:25:18.882Z,93997.19
2019-02-28T18:28:09.688Z,93990.92
2019-02-28T18:30:53.515Z,93992.69
2019-02-28T18:33:22.018Z,93997.31
2019-02-28T18:35:50.653Z,93999.53
2019-02-28T18:38:19.099Z,93998.67
2019-02-28T18:40:47.718Z,93995.20
2019-02-28T18:43:16.194Z,94010.63
2019-02-28T18:45:44.739Z,94009.00
2019-02-28T18:48:14.575Z,94016.29
2019-02-28T18:50:43.436Z,94004.70
2019-02-28T18:53:11.880Z,94014.28
2019-02-28T18:55:40.414Z,94014.05
2019-02-28T18:58:08.877Z,94013.38
2019-02-28T19:00:37.453Z,94017.86
2019-02-28T19:03:06.109Z,94027.20
2019-02-28T19:05:34.561Z,94022.43
2019-02-28T19:08:03.108Z,94022.39
2019-02-28T19:10:31.615Z,94020.08
2019-02-28T19:13:00.062Z,94025.39
2019-02-28T19:15:28.653Z,94028.20
2019-02-28T19:17:57.074Z,94037.28
2019-02-28T19:20:25.548Z,94033.16
2019-02-28T19:22:54.014Z,94036.68
2019-02-28T19:25:22.459Z,94048.61
2019-02-28T19:27:50.968Z,94047.22
2019-02-28T19:30:19.573Z,94052.78
2019-02-28T19:32:48.065Z,94070.20
2019-02-28T19:35:16.601Z,94069.94
2019-02-28T19:37:45.181Z,94060.77
2019-02-28T19:40:14.496Z,94069.82
2019-02-28T19:42:43.030Z,94083.44
2019-02-28T19:45:29.724Z,94074.86
2019-02-28T19:47:58.227Z,94077.77
2019-02-28T19:50:26.731Z,94080.63
2019-02-28T19:52:56.752Z,94072.67
2019-02-28T19:55:25.290Z,94078.76
2019-02-28T19:57:53.745Z,94077.94
2019-02-28T20:00:22.349Z,94075.02
2019-02-28T20:02:50.830Z,94072.97
2019-02-28T20:05:19.640Z,94070.80
2019-02-28T20:07:48.076Z,94073.02
2019-02-28T20:10:20.387Z,94071.83
2019-02-28T20:12:48.957Z,94068.75
2019-02-28T20:15:26.371Z,94074.13
2019-02-28T20:17:54.959Z,94074.45
2019-02-28T20:20:28.642Z,94066.41
2019-02-28T20:22:58.645Z,94078.20
2019-02-28T20:25:27.201Z,94074.06
2019-02-28T20:27:55.682Z,94070.02
2019-02-28T20:30:25.928Z,94067.92
2019-02-28T20:32:54.516Z,94068.19
2019-02-28T20:35:26.466Z,94068.56
2019-02-28T20:37:53.404Z,94063.33
2019-02-28T20:40:27.416Z,94061.64
2019-02-28T20:42:55.942Z,94063.24
2019-02-28T20:45:24.476Z,94055.01
2019-02-28T20:47:52.970Z,94053.17
2019-02-28T20:50:48.211Z,94044.17
2019-02-28T20:53:16.648Z,94025.61
2019-02-28T20:55:45.155Z,94032.12
2019-02-28T20:58:13.616Z,94031.90
2019-02-28T21:00:42.023Z,94043.83
2019-02-28T21:03:10.449Z,94044.28
2019-02-28T21:05:38.975Z,94049.91
2019-02-28T21:08:07.556Z,94049.96
2019-02-28T21:10:36.147Z,94045.64
2019-02-28T21:13:04.842Z,94043.37
2019-02-28T21:15:33.335Z,94030.99
2019-02-28T21:18:01.777Z,94030.64
2019-02-28T21:20:30.226Z,94033.22
2019-02-28T21:22:59.647Z,94032.63
2019-02-28T21:25:28.149Z,94030.50
2019-02-28T21:27:56.592Z,94025.77
2019-02-28T21:30:26.757Z,94025.77
2019-02-28T21:32:56.896Z,94026.41
2019-02-28T21:35:26.136Z,94026.20
2019-02-28T21:37:54.763Z,94023.52
2019-02-28T21:40:24.072Z,94016.28
2019-02-28T21:42:52.592Z,94021.88
2019-02-28T21:45:30.015Z,94019.80
2019-02-28T21:47:58.480Z,94021.49
2019-02-28T21:50:26.894Z,94020.36
2019-02-28T21:52:57.496Z,94018.02
2019-02-28T21:55:25.743Z,94022.34
2019-02-28T21:57:54.277Z,94016.78
2019-02-28T22:00:27.794Z,94008.94
2019-02-28T22:02:56.320Z,94004.82
2019-02-28T22:05:24.827Z,93995.98
2019-02-28T22:07:53.268Z,93997.93
2019-02-28T22:10:21.793Z,93997.59
2019-02-28T22:12:50.329Z,93993.09
2019-02-28T22:15:22.905Z,93985.80
2019-02-28T22:17:51.406Z,93983.48
2019-02-28T22:20:19.993Z,93973.12
2019-02-28T22:22:48.555Z,93973.19
2019-02-28T22:25:17.661Z,93962.01
2019-02-28T22:27:46.209Z,93961.34
2019-02-28T22:30:37.712Z,93956.19
2019-02-28T22:33:14.238Z,93963.77
2019-02-28T22:35:44.291Z,93957.45
2019-02-28T22:38:12.821Z,93962.41
2019-02-28T22:40:41.314Z,93962.13
2019-02-28T22:43:09.789Z,93956.36
2019-02-28T22:45:38.226Z,93956.80
2019-02-28T22:48:08.177Z,93956.95
2019-02-28T22:50:36.579Z,93955.00
2019-02-28T22:53:05.177Z,93945.47
2019-02-28T22:55:33.765Z,93947.38
2019-02-28T22:58:10.521Z,93935.19
2019-02-28T23:01:07.864Z,93932.62
2019-02-28T23:03:37.044Z,93929.19
2019-02-28T23:06:06.240Z,93914.09
2019-02-28T23:08:34.719Z,93918.02
2019-02-28T23:11:03.346Z,93910.52
2019-02-28T23:13:31.935Z,93917.80
2019-02-28T23:16:00.415Z,93913.31
2019-02-28T23:18:29.089Z,93914.19
2019-02-28T23:20:57.512Z,93919.46
2019-02-28T23:23:25.964Z,93923.06
2019-02-28T23:25:54.376Z,93912.88
2019-02-28T23:28:28.357Z,93916.82
2019-02-28T23:31:19.494Z,93926.63
2019-02-28T23:33:47.928Z,93914.53
2019-02-28T23:36:16.349Z,93908.84
2019-02-28T23:38:44.991Z,93895.94
2019-02-28T23:41:13.396Z,93887.78
2019-02-28T23:43:41.875Z,93886.84
2019-02-28T23:46:10.411Z,93890.20
2019-02-28T23:48:38.826Z,93888.91
2019-02-28T23:51:07.405Z,93889.80
2019-02-28T23:53:35.864Z,93892.22
2019-02-28T23:56:04.420Z,93889.28
2019-02-28T23:58:32.953Z,93881.62
